Terminal Aerodrome Forecast
Issued by NWS

Home | Current Version | Previous Version | Text Only | Print | Product List | Glossary On
Versions: 1 2 3 4 5 6 7 8 9 10 11 12 13
000
FTUS45 KPIH 260520
TAFSUN
TAF
KSUN 260520Z 2606/2706 31009KT P6SM VCSH SCT070
     FM261800 14009KT P6SM -SHRA VCTS BKN030CB BKN050
     FM270000 VRB06KT P6SM VCSH BKN050
      AMD LTD TO CLD VIS AND WIND TIL 271400=

USA.gov is the U.S. government's official web portal to all federal, state and local government web resources and services.